This is the latest recevied weather packets stored in our database for station/object KB4MOX. If no packets are shown the sender has not sent any weather packets the latest 10 day(s).
| Time | Temp. | Humidity | Pressure | Rain* | Wind** | Luminosity | Snow |
|---|---|---|---|---|---|---|---|
| 1778100782 | 31.67° C | 41% | 1013.2 hPa | 0 mm | - | 470 W/m² | - |
| 1778100478 | 31.11° C | 42% | 1013.2 hPa | 0 mm | - | 537 W/m² | - |
| 1778100176 | 31.11° C | 41% | 1013.1 hPa | 0 mm | - | 336 W/m² | - |
| 1778099874 | 31.11° C | 41% | 1013.2 hPa | 0 mm | - | 552 W/m² | - |
| 1778099571 | 31.11° C | 39% | 1013.1 hPa | 0 mm | - | 590 W/m² | - |
| 1778099268 | 31.11° C | 40% | 1013.5 hPa | 0 mm | - | 613 W/m² | - |
| 1778098965 | 30.56° C | 41% | 1013.6 hPa | 0 mm | - | 710 W/m² | - |
| 1778098661 | 30.56° C | 42% | 1013.8 hPa | 0 mm | - | 654 W/m² | - |
| 1778098358 | 30.56° C | 42% | 1013.8 hPa | 0 mm | - | 660 W/m² | - |
| 1778098055 | 30.56° C | 42% | 1013.8 hPa | 0 mm | - | 646 W/m² | - |
| 1778097752 | 30.56° C | 42% | 1013.9 hPa | 0 mm | - | 680 W/m² | - |
| 1778097448 | 30.56° C | 42% | 1014 hPa | 0 mm | - | 356 W/m² | - |
| 1778097145 | 30.56° C | 42% | 1014.3 hPa | 0 mm | - | 783 W/m² | - |
| 1778096842 | 31.11° C | 41% | 1014.4 hPa | 0 mm | - | 259 W/m² | - |
| 1778096538 | 30.56° C | 42% | 1014.5 hPa | 0 mm | - | 745 W/m² | - |
| 1778096236 | 30.56° C | 41% | 1014.4 hPa | 0 mm | - | 480 W/m² | - |
| 1778095933 | 31.11° C | 39% | 1014.5 hPa | 0 mm | - | 762 W/m² | - |
| 1778095629 | 30.56° C | 40% | 1014.5 hPa | 0 mm | - | 808 W/m² | - |
| 1778095326 | 30.56° C | 37% | 1014.5 hPa | 0 mm | - | 779 W/m² | - |
| 1778095017 | 30.56° C | 37% | 1014.5 hPa | 0 mm | - | 781 W/m² | - |
| 1778094713 | 30.56° C | 38% | 1014.5 hPa | 0 mm | - | 803 W/m² | - |
| 1778094410 | 31.11° C | 38% | 1014.7 hPa | 0 mm | - | 780 W/m² | - |
| 1778094107 | 30.56° C | 41% | 1014.7 hPa | 0 mm | - | 781 W/m² | - |
| 1778093804 | 30° C | 42% | 1014.6 hPa | 0 mm | - | 779 W/m² | - |
| 1778093500 | 30.56° C | 43% | 1014.7 hPa | 0 mm | - | 789 W/m² | - |
* Rain latest hour (hover to see other rain measurements)
** Current wind speed in m/s (hover to see current wind gust speed)